Terminal Aerodrome Forecast
Issued by NWS Bismarck, ND

Home | Current Version | Previous Version | Graphics & Text | Print | Product List | Glossary On
Versions: 1 2 3 4 5 6 7 8 9 10 11 12 13 14 15 16 17 18 19 20 21 22 23 24 25
140
FTUS43 KBIS 132332
TAFISN
TAF
KISN 132332Z 1400/1424 13007KT 5SM -SN BKN008 OVC015
     FM140100 20007KT P6SM VCSH SCT008 OVC015
     FM140400 29013KT P6SM VCSH OVC015
     FM140600 30016G24KT P6SM OVC015
     FM140900 29009KT P6SM OVC020
     FM141100 28008KT P6SM BKN040=

USA.gov is the U.S. government's official web portal to all federal, state and local government web resources and services.